Time;durP1;ratioP1;P1;durP2;ratioP2;P2;SDS_P1;SDS_P2;PMS_P1;PMS_P2;Temp;Humidity;BMP_temperature;BMP_pressure;BME280_temperature;BME280_humidity;BME280_pressure;Samples;Min_cycle;Max_cycle;Signal;HPM_P1;HPM_P2
2024/01/19 00:02:19;;;;;;;1.27;1.27;;;;;;;-1.64;85.36;96833.16;4946917;29;20057;-72
2024/01/19 00:04:47;;;;;;;1.13;1.13;;;;;;;-1.72;85.16;96830.41;4953144;28;20074;-72
2024/01/19 00:07:15;;;;;;;1.08;1.08;;;;;;;-1.87;85.38;96841.25;4952166;28;20043;-72
2024/01/19 00:09:43;;;;;;;0.43;0.43;;;;;;;-1.86;85.72;96848.16;4953766;28;20454;-72
2024/01/19 00:12:10;;;;;;;0.43;0.43;;;;;;;-1.88;85.81;96846.66;4953776;28;20051;-72
2024/01/19 00:14:38;;;;;;;1.23;1.23;;;;;;;-1.88;85.79;96857.13;4954115;28;20047;-72
2024/01/19 00:17:06;;;;;;;0.98;0.98;;;;;;;-1.92;85.45;96855.72;4953764;28;20086;-72
2024/01/19 00:19:33;;;;;;;1.08;1.08;;;;;;;-1.91;85.68;96854.75;4956951;28;20066;-72
2024/01/19 00:22:02;;;;;;;1.13;1.13;;;;;;;-1.83;85.52;96861.91;4965478;28;20053;-72
2024/01/19 00:24:30;;;;;;;1.05;1.05;;;;;;;-1.82;85.67;96863.56;4952273;28;20122;-72
2024/01/19 00:26:58;;;;;;;0.98;0.98;;;;;;;-1.86;85.98;96865.63;4951963;28;20063;-72
2024/01/19 00:29:25;;;;;;;0.40;0.40;;;;;;;-1.90;85.78;96869.50;4953181;28;20388;-73
2024/01/19 00:31:53;;;;;;;0.90;0.90;;;;;;;-1.85;85.39;96873.34;4953710;28;20051;-73
2024/01/19 00:34:21;;;;;;;1.20;1.20;;;;;;;-1.90;85.11;96867.72;4944433;28;20092;-72
2024/01/19 00:36:48;;;;;;;1.30;1.30;;;;;;;-1.89;85.17;96871.97;4949848;28;20053;-72
2024/01/19 00:39:17;;;;;;;1.05;1.05;;;;;;;-1.82;85.16;96874.88;4952621;28;20058;-72
2024/01/19 00:41:45;;;;;;;1.25;1.25;;;;;;;-1.95;84.97;96880.34;4953952;28;20043;-72
2024/01/19 00:44:13;;;;;;;1.88;1.88;;;;;;;-1.96;85.67;96890.94;4952532;28;20051;-72
2024/01/19 00:46:41;;;;;;;0.30;0.30;;;;;;;-1.95;85.60;96893.41;4952153;28;20447;-72
2024/01/19 00:49:09;;;;;;;0.95;0.95;;;;;;;-1.90;85.25;96901.69;4952127;28;20043;-72
2024/01/19 00:51:36;;;;;;;0.90;0.90;;;;;;;-1.98;84.92;96900.72;4953133;28;20054;-72
2024/01/19 00:54:04;;;;;;;1.17;1.17;;;;;;;-2.02;85.58;96902.75;4953912;28;20057;-72
2024/01/19 00:56:33;;;;;;;1.02;1.02;;;;;;;-2.12;85.66;96904.53;4953785;28;20035;-72
2024/01/19 00:59:01;;;;;;;1.23;1.23;;;;;;;-2.01;85.59;96911.44;4945078;28;20039;-73
2024/01/19 01:01:29;;;;;;;1.05;1.05;;;;;;;-2.00;85.22;96908.69;4953089;28;20039;-73
2024/01/19 01:03:58;;;;;;;1.02;1.02;;;;;;;-1.99;85.01;96910.34;4952954;29;20043;-73
2024/01/19 01:06:26;;;;;;;0.80;0.80;;;;;;;-1.92;84.91;96921.09;4953667;28;20118;-73
2024/01/19 01:08:57;;;;;;;0.95;0.95;;;;;;;-2.07;85.51;96915.38;4952194;28;20061;-73
2024/01/19 01:11:25;;;;;;;0.35;0.35;;;;;;;-2.09;85.41;96922.56;4953541;28;20129;-73
2024/01/19 01:13:54;;;;;;;1.13;1.13;;;;;;;-1.97;85.33;96925.88;4953484;28;20095;-73
2024/01/19 01:16:22;;;;;;;1.02;1.02;;;;;;;-2.02;85.14;96931.50;4953624;28;20121;-73
2024/01/19 01:18:49;;;;;;;0.30;0.30;;;;;;;-2.19;85.14;96926.94;4952047;28;20051;-72
2024/01/19 01:21:17;;;;;;;0.90;0.90;;;;;;;-2.16;85.09;96938.88;4952932;28;20047;-72
2024/01/19 01:23:44;;;;;;;1.25;1.25;;;;;;;-2.04;84.44;96935.22;4952851;28;20039;-72
2024/01/19 01:26:12;;;;;;;1.10;1.10;;;;;;;-2.00;84.41;96942.66;4952327;28;20044;-72
2024/01/19 01:28:40;;;;;;;1.20;1.20;;;;;;;-1.99;84.61;96943.50;4951305;28;20130;-72
2024/01/19 01:31:09;;;;;;;1.20;1.20;;;;;;;-1.91;83.69;96946.25;4956753;28;20516;-72
2024/01/19 01:33:37;;;;;;;0.98;0.98;;;;;;;-1.92;84.39;96955.91;4956646;28;20099;-72
2024/01/19 01:36:05;;;;;;;0.20;0.20;;;;;;;-1.89;83.44;96957.44;4957097;28;20380;-72
2024/01/19 01:38:33;;;;;;;1.10;1.10;;;;;;;-1.99;84.09;96951.34;4957700;28;20211;-72
2024/01/19 01:41:00;;;;;;;0.98;0.98;;;;;;;-2.00;83.87;96968.81;4958141;28;20051;-72
2024/01/19 01:43:28;;;;;;;0.93;0.93;;;;;;;-1.98;83.97;96973.91;4956795;28;20046;-72
2024/01/19 01:45:56;;;;;;;0.30;0.30;;;;;;;-1.92;83.96;96975.97;4955640;28;20550;-73
2024/01/19 01:48:25;;;;;;;0.30;0.30;;;;;;;-1.99;83.72;96983.53;4946975;28;20090;-72
2024/01/19 01:50:54;;;;;;;0.20;0.20;;;;;;;-1.98;83.55;96976.53;4955872;28;20502;-72
2024/01/19 01:53:23;;;;;;;1.20;1.20;;;;;;;-1.96;84.04;96988.47;4951699;28;20047;-72
2024/01/19 01:55:51;;;;;;;1.05;1.05;;;;;;;-2.02;83.95;96990.81;4956595;28;20043;-72
2024/01/19 01:58:19;;;;;;;0.98;0.98;;;;;;;-1.92;84.16;96989.88;4954922;28;20047;-73
2024/01/19 02:00:47;;;;;;;0.30;0.30;;;;;;;-1.99;83.35;96986.16;4955875;28;20050;-72
2024/01/19 02:03:15;;;;;;;0.90;0.90;;;;;;;-1.94;83.67;96996.19;4954819;28;20055;-72
2024/01/19 02:05:44;;;;;;;1.13;1.13;;;;;;;-1.87;83.98;97010.41;4956683;28;20071;-71
2024/01/19 02:08:11;;;;;;;1.35;1.35;;;;;;;-1.86;83.57;97005.03;4955371;28;20051;-71
2024/01/19 02:10:40;;;;;;;0.90;0.90;;;;;;;-1.87;83.41;97013.03;4956183;29;20043;-72
2024/01/19 02:13:07;;;;;;;1.05;1.05;;;;;;;-1.84;83.47;97031.03;4955509;28;20043;-71
2024/01/19 02:15:37;;;;;;;1.02;1.02;;;;;;;-1.76;83.22;97019.91;4944527;29;20074;-72
2024/01/19 02:18:05;;;;;;;0.98;0.98;;;;;;;-1.79;83.56;97034.13;4937414;28;20050;-72
2024/01/19 02:20:33;;;;;;;0.30;0.30;;;;;;;-1.88;82.83;97027.88;4960002;28;20415;-72
2024/01/19 02:23:03;;;;;;;0.40;0.40;;;;;;;-1.92;82.90;97038.72;4962275;28;20067;-72
2024/01/19 02:25:32;;;;;;;1.13;1.13;;;;;;;-1.90;83.07;97036.81;4960477;28;20035;-72
2024/01/19 02:28:00;;;;;;;1.13;1.13;;;;;;;-1.88;82.92;97040.13;4958323;28;20054;-72
2024/01/19 02:30:27;;;;;;;0.95;0.95;;;;;;;-1.83;82.48;97043.16;4965122;28;20039;-72
2024/01/19 02:32:55;;;;;;;0.95;0.95;;;;;;;-1.82;82.79;97034.38;4963413;28;20051;-72
2024/01/19 02:35:22;;;;;;;0.73;0.73;;;;;;;-1.78;82.42;97043.63;4955080;28;20191;-72
2024/01/19 02:37:50;;;;;;;0.47;0.47;;;;;;;-1.80;82.11;97042.91;4957145;28;20106;-72
2024/01/19 02:40:18;;;;;;;1.15;1.15;;;;;;;-1.79;81.89;97046.34;4955047;28;20143;-72
2024/01/19 02:42:46;;;;;;;1.23;1.23;;;;;;;-1.82;81.95;97044.00;4955794;28;20114;-72
2024/01/19 02:45:14;;;;;;;1.15;1.15;;;;;;;-1.81;81.63;97050.88;4952797;28;20051;-72
2024/01/19 02:47:42;;;;;;;0.20;0.20;;;;;;;-1.85;81.72;97051.13;4954792;28;20039;-72
2024/01/19 02:50:10;;;;;;;1.35;1.35;;;;;;;-1.80;81.67;97050.75;4955051;28;20066;-71
2024/01/19 02:52:38;;;;;;;0.65;0.65;;;;;;;-1.69;81.53;97055.06;4955474;28;20031;-72
2024/01/19 02:55:07;;;;;;;0.98;0.98;;;;;;;-1.69;81.56;97063.75;4953796;28;20138;-72
2024/01/19 02:57:34;;;;;;;0.95;0.95;;;;;;;-1.82;81.79;97065.75;4954851;28;20058;-72
2024/01/19 03:00:05;;;;;;;0.80;0.80;;;;;;;-1.72;81.66;97060.56;4954993;28;20043;-72
2024/01/19 03:02:32;;;;;;;1.83;1.83;;;;;;;-1.89;82.23;97075.91;4954583;28;20127;-72
2024/01/19 03:05:00;;;;;;;0.93;0.93;;;;;;;-1.97;82.40;97078.31;4954581;28;20043;-72
2024/01/19 03:07:28;;;;;;;0.22;0.22;;;;;;;-1.83;81.95;97069.31;4954128;28;20402;-71
2024/01/19 03:09:55;;;;;;;1.17;1.17;;;;;;;-1.96;82.00;97082.59;4950915;28;20050;-72
2024/01/19 03:12:23;;;;;;;0.98;0.98;;;;;;;-1.99;82.59;97075.03;4954471;28;20047;-72
2024/01/19 03:14:51;;;;;;;0.95;0.95;;;;;;;-1.97;82.29;97073.09;4955078;28;20049;-72
2024/01/19 03:17:20;;;;;;;1.00;1.00;;;;;;;-1.97;82.17;97083.56;4954347;28;20051;-72
2024/01/19 03:19:47;;;;;;;0.88;0.88;;;;;;;-1.82;82.25;97083.22;4954721;28;20081;-72
2024/01/19 03:22:15;;;;;;;0.75;0.75;;;;;;;-1.93;82.34;97084.97;4954692;28;20047;-72
2024/01/19 03:24:43;;;;;;;1.02;1.02;;;;;;;-2.04;82.33;97076.38;4953251;28;20495;-72
2024/01/19 03:27:10;;;;;;;0.88;0.88;;;;;;;-1.99;82.90;97088.09;4954828;28;20051;-72
2024/01/19 03:29:38;;;;;;;1.00;1.00;;;;;;;-1.95;82.50;97086.88;4962185;28;20062;-72
2024/01/19 03:32:06;;;;;;;0.88;0.88;;;;;;;-1.90;82.34;97083.88;4956448;28;20150;-71
2024/01/19 03:34:35;;;;;;;0.90;0.90;;;;;;;-1.87;82.38;97092.28;4954592;29;20035;-72
2024/01/19 03:37:04;;;;;;;1.17;1.17;;;;;;;-1.86;82.41;97088.69;4954200;28;20047;-72
2024/01/19 03:39:31;;;;;;;1.02;1.02;;;;;;;-1.85;82.42;97090.38;4954349;28;20122;-72
2024/01/19 03:41:59;;;;;;;0.95;0.95;;;;;;;-1.85;82.04;97086.91;4940934;29;20054;-71
2024/01/19 03:44:27;;;;;;;0.60;0.60;;;;;;;-1.91;82.17;97088.28;4949107;28;20402;-71
2024/01/19 03:46:55;;;;;;;0.85;0.85;;;;;;;-1.91;82.79;97090.91;4953325;28;20102;-71
2024/01/19 03:49:23;;;;;;;0.98;0.98;;;;;;;-1.95;82.25;97104.34;4954257;28;20052;-71
2024/01/19 03:52:02;;;;;;;2.30;2.22;;;;;;;-1.98;81.93;97099.41;4954506;28;20131;-71
2024/01/19 03:54:30;;;;;;;0.25;0.25;;;;;;;-2.09;82.42;97107.31;4948088;28;20422;-71
2024/01/19 03:56:59;;;;;;;0.43;0.43;;;;;;;-2.12;82.24;97112.78;4939440;28;20436;-71
2024/01/19 03:59:27;;;;;;;1.05;1.05;;;;;;;-2.18;82.40;97108.88;4946438;29;20167;-71
2024/01/19 04:01:55;;;;;;;0.65;0.65;;;;;;;-2.10;82.87;97116.94;4952812;28;20070;-71
2024/01/19 04:04:22;;;;;;;1.35;1.35;;;;;;;-2.24;82.70;97112.84;4953847;28;20039;-71
2024/01/19 04:06:52;;;;;;;0.75;0.75;;;;;;;-2.40;83.30;97122.91;4950232;28;20046;-73
2024/01/19 04:09:21;;;;;;;1.08;1.08;;;;;;;-2.40;83.40;97111.63;4952894;28;20087;-71
2024/01/19 04:11:49;;;;;;;0.98;0.98;;;;;;;-2.46;83.71;97105.13;4953636;28;20130;-71
2024/01/19 04:14:17;;;;;;;1.13;1.13;;;;;;;-2.39;83.38;97105.47;4953756;28;20043;-71
2024/01/19 04:16:44;;;;;;;0.90;0.90;;;;;;;-2.47;83.15;97113.06;4953060;28;20035;-72
2024/01/19 04:19:12;;;;;;;0.65;0.65;;;;;;;-2.46;82.40;97119.97;4949913;28;20057;-72
2024/01/19 04:21:40;;;;;;;0.68;0.68;;;;;;;-2.43;82.47;97123.16;4952621;28;20043;-70
2024/01/19 04:24:07;;;;;;;1.08;1.08;;;;;;;-2.49;82.62;97117.63;4952793;28;20486;-70
2024/01/19 04:26:39;;;;;;;0.93;0.93;;;;;;;-2.73;82.47;97118.66;4953418;28;20043;-71
2024/01/19 04:29:06;;;;;;;1.00;1.00;;;;;;;-2.60;82.04;97127.16;4952116;28;20061;-71
2024/01/19 04:31:34;;;;;;;0.73;0.73;;;;;;;-2.82;82.04;97134.25;4954975;28;20113;-72
2024/01/19 04:34:02;;;;;;;0.30;0.30;;;;;;;-2.94;82.51;97136.06;4955636;28;20130;-72
2024/01/19 04:36:29;;;;;;;1.20;1.20;;;;;;;-2.95;82.48;97121.34;4953930;28;20047;-71
2024/01/19 04:38:57;;;;;;;1.05;1.05;;;;;;;-3.04;82.39;97128.13;4957617;28;20058;-71
2024/01/19 04:41:25;;;;;;;1.33;1.33;;;;;;;-3.18;82.52;97123.16;4954803;28;20100;-71
2024/01/19 04:43:54;;;;;;;0.50;0.50;;;;;;;-3.34;83.00;97131.38;4955615;29;20419;-73
2024/01/19 04:46:21;;;;;;;0.98;0.98;;;;;;;-3.41;83.25;97137.19;4933762;28;20654;-73
2024/01/19 04:48:49;;;;;;;0.20;0.20;;;;;;;-3.42;83.01;97138.13;4954084;28;20478;-73
2024/01/19 04:51:17;;;;;;;1.10;1.10;;;;;;;-3.32;83.02;97145.13;4954920;28;20125;-73
2024/01/19 04:53:44;;;;;;;1.00;1.00;;;;;;;-3.40;83.09;97152.72;4953713;28;20062;-73
2024/01/19 04:56:12;;;;;;;0.82;0.82;;;;;;;-3.44;82.80;97156.53;4953048;28;20078;-73
2024/01/19 04:58:40;;;;;;;0.40;0.40;;;;;;;-3.38;82.35;97157.81;4948441;28;20507;-72
2024/01/19 05:01:09;;;;;;;0.98;0.98;;;;;;;-3.30;80.61;97168.47;4950512;28;20149;-72
2024/01/19 05:03:37;;;;;;;1.35;1.35;;;;;;;-3.61;80.37;97171.78;4947431;28;20048;-72
2024/01/19 05:06:04;;;;;;;0.93;0.93;;;;;;;-3.87;80.65;97182.44;4947721;28;20440;-72
2024/01/19 05:08:32;;;;;;;0.88;0.88;;;;;;;-4.34;81.06;97177.31;4942287;28;20107;-72
2024/01/19 05:11:00;;;;;;;0.95;0.95;;;;;;;-4.28;81.00;97180.31;4944499;28;20047;-72
2024/01/19 05:13:28;;;;;;;1.40;1.40;;;;;;;-4.51;82.53;97186.38;4951108;28;20517;-72
2024/01/19 05:15:55;;;;;;;0.30;0.30;;;;;;;-4.69;83.39;97185.97;4952414;28;20491;-71
2024/01/19 05:18:24;;;;;;;1.38;1.38;;;;;;;-4.73;83.45;97184.50;4946545;28;20056;-71
2024/01/19 05:20:52;;;;;;;1.38;1.38;;;;;;;-4.64;82.51;97194.25;4944061;28;20524;-71
2024/01/19 05:23:20;;;;;;;1.08;1.08;;;;;;;-4.62;83.19;97191.53;4945115;28;20051;-72
2024/01/19 05:25:48;;;;;;;1.00;1.00;;;;;;;-4.55;81.94;97201.38;4944653;28;20036;-71
2024/01/19 05:28:16;;;;;;;0.22;0.22;;;;;;;-4.66;83.18;97208.31;4947179;28;20415;-71
2024/01/19 05:30:43;;;;;;;0.82;0.82;;;;;;;-4.74;83.12;97213.25;4993461;23;20054;-70
2024/01/19 05:33:11;;;;;;;1.10;1.10;;;;;;;-4.71;83.11;97223.44;4970081;28;20066;-73
2024/01/19 05:35:40;;;;;;;1.23;1.23;;;;;;;-4.73;82.48;97227.91;4962741;28;20103;-71
2024/01/19 05:38:08;;;;;;;0.93;0.93;;;;;;;-4.83;82.29;97223.38;4968377;28;20047;-71
2024/01/19 05:40:35;;;;;;;1.55;1.55;;;;;;;-4.92;81.62;97234.44;4971876;28;20085;-70
2024/01/19 05:43:03;;;;;;;1.35;1.35;;;;;;;-5.11;81.54;97228.88;4969518;28;20078;-70
2024/01/19 05:45:31;;;;;;;1.15;1.15;;;;;;;-5.24;81.41;97236.69;4966343;28;20046;-71
2024/01/19 05:47:59;;;;;;;1.05;1.05;;;;;;;-5.38;83.35;97241.16;4977490;28;20105;-74
2024/01/19 05:50:26;;;;;;;1.25;1.25;;;;;;;-5.35;83.10;97243.56;4981783;28;20053;-72
2024/01/19 05:52:56;;;;;;;1.05;1.05;;;;;;;-5.31;82.70;97252.81;4969939;28;20101;-72
2024/01/19 05:55:24;;;;;;;1.25;1.25;;;;;;;-5.26;82.62;97253.31;4977227;28;20058;-73
2024/01/19 05:57:52;;;;;;;1.08;1.08;;;;;;;-5.34;83.22;97261.66;4959253;28;20520;-71
2024/01/19 06:00:20;;;;;;;1.00;1.00;;;;;;;-5.40;83.75;97271.66;4980038;28;20063;-73
2024/01/19 06:02:48;;;;;;;0.40;0.40;;;;;;;-5.45;84.58;97268.53;4965351;28;20106;-70
2024/01/19 06:05:16;;;;;;;1.08;1.08;;;;;;;-5.31;83.46;97271.03;4974104;28;20075;-71
2024/01/19 06:07:43;;;;;;;1.15;1.15;;;;;;;-5.25;83.98;97273.19;4975365;28;20062;-74
2024/01/19 06:10:13;;;;;;;1.10;1.10;;;;;;;-5.41;85.66;97283.81;4963435;28;20140;-70
2024/01/19 06:12:40;;;;;;;1.20;1.20;;;;;;;-5.45;85.88;97279.75;4982825;28;20058;-71
2024/01/19 06:15:08;;;;;;;1.42;1.42;;;;;;;-5.45;86.24;97284.13;4966123;28;20047;-71
2024/01/19 06:17:36;;;;;;;0.57;0.57;;;;;;;-5.45;86.32;97287.56;4974129;28;20394;-73
2024/01/19 06:20:04;;;;;;;0.30;0.30;;;;;;;-5.43;86.44;97295.25;4974319;28;20444;-71
2024/01/19 06:22:32;;;;;;;0.80;0.80;;;;;;;-5.42;86.89;97294.31;4965583;28;20047;-72
2024/01/19 06:25:00;;;;;;;1.15;1.15;;;;;;;-5.37;86.30;97303.44;4972375;28;20094;-71
2024/01/19 06:27:29;;;;;;;1.17;1.17;;;;;;;-5.42;86.67;97305.56;4968395;28;20035;-73
2024/01/19 06:29:57;;;;;;;0.80;0.80;;;;;;;-5.39;86.95;97296.69;4969607;28;20114;-73
2024/01/19 06:32:25;;;;;;;1.15;1.15;;;;;;;-5.40;86.30;97303.69;4969591;28;20047;-71
2024/01/19 06:34:52;;;;;;;1.25;1.25;;;;;;;-5.41;85.97;97309.81;4973156;28;20141;-70
2024/01/19 06:37:20;;;;;;;1.55;1.55;;;;;;;-5.36;86.19;97304.28;4974531;28;20046;-71
2024/01/19 06:39:48;;;;;;;1.30;1.30;;;;;;;-5.21;85.67;97304.09;4985040;28;20552;-70
2024/01/19 06:42:16;;;;;;;1.27;1.27;;;;;;;-5.28;85.29;97309.78;4978015;28;20043;-71
2024/01/19 06:44:45;;;;;;;0.30;0.30;;;;;;;-5.15;84.23;97317.59;4983621;28;20402;-71
2024/01/19 06:47:12;;;;;;;1.10;1.10;;;;;;;-5.19;84.43;97322.19;4972136;28;20118;-71
2024/01/19 06:49:40;;;;;;;1.02;1.02;;;;;;;-5.18;84.07;97321.22;4975391;28;20125;-70
2024/01/19 06:52:07;;;;;;;1.30;1.30;;;;;;;-5.25;84.42;97327.78;4974933;28;20047;-70
2024/01/19 06:54:35;;;;;;;0.65;0.65;;;;;;;-5.35;84.72;97327.59;4972509;28;20050;-71
2024/01/19 06:57:03;;;;;;;0.82;0.82;;;;;;;-5.37;85.21;97337.25;4982228;28;20052;-71
2024/01/19 06:59:32;;;;;;;1.00;1.00;;;;;;;-5.30;85.15;97341.13;4977012;28;20047;-70
2024/01/19 07:02:01;;;;;;;0.88;0.88;;;;;;;-5.33;85.33;97343.09;4967872;28;20047;-71
2024/01/19 07:04:28;;;;;;;0.77;0.77;;;;;;;-5.25;85.61;97344.22;4982427;28;20161;-72
2024/01/19 07:06:56;;;;;;;1.00;1.00;;;;;;;-5.09;85.53;97341.44;4972506;28;20074;-70
2024/01/19 07:09:26;;;;;;;0.98;0.98;;;;;;;-5.00;84.92;97347.78;4972435;28;20047;-70
2024/01/19 07:11:54;;;;;;;0.98;0.98;;;;;;;-5.06;82.20;97348.19;4977668;28;20518;-70
2024/01/19 07:14:21;;;;;;;1.02;1.02;;;;;;;-5.07;82.42;97356.91;4967096;28;20047;-70
2024/01/19 07:16:49;;;;;;;1.63;1.63;;;;;;;-5.23;81.18;97347.56;4971136;28;20038;-72
2024/01/19 07:19:19;;;;;;;0.90;0.90;;;;;;;-5.47;81.33;97354.41;4956616;28;20101;-71
2024/01/19 07:21:47;;;;;;;1.02;1.02;;;;;;;-5.69;81.18;97367.13;4982414;28;20129;-73
2024/01/19 07:24:14;;;;;;;0.88;0.88;;;;;;;-5.83;80.28;97362.88;4974266;28;20049;-73
2024/01/19 07:26:43;;;;;;;0.40;0.40;;;;;;;-5.86;79.51;97359.63;4982188;28;20548;-71
2024/01/19 07:29:10;;;;;;;0.75;0.75;;;;;;;-5.69;80.44;97364.53;4973960;28;20053;-71
2024/01/19 07:31:38;;;;;;;0.38;0.38;;;;;;;-5.61;79.65;97378.72;4977179;28;20405;-71
2024/01/19 07:34:06;;;;;;;1.05;1.05;;;;;;;-5.83;81.55;97378.44;4974399;28;20051;-71
2024/01/19 07:36:35;;;;;;;1.52;1.52;;;;;;;-5.95;82.25;97377.50;4980112;28;20572;-71
2024/01/19 07:39:03;;;;;;;0.40;0.40;;;;;;;-5.96;82.82;97386.22;4957649;28;20487;-73
2024/01/19 07:41:31;;;;;;;0.25;0.25;;;;;;;-5.73;80.83;97397.72;4985134;28;20038;-70
2024/01/19 07:43:58;;;;;;;1.35;1.35;;;;;;;-5.71;79.48;97397.63;4981035;28;20069;-71
2024/01/19 07:46:26;;;;;;;0.30;0.30;;;;;;;-6.09;78.42;97392.28;4988147;28;20453;-71
2024/01/19 07:48:53;;;;;;;0.88;0.88;;;;;;;-6.16;79.50;97402.25;4985045;28;20510;-71
2024/01/19 07:51:22;;;;;;;1.10;1.10;;;;;;;-6.22;80.11;97407.81;4972634;28;20126;-71
2024/01/19 07:53:51;;;;;;;0.50;0.50;;;;;;;-6.00;80.27;97407.28;4971178;28;20149;-73
2024/01/19 07:56:18;;;;;;;1.08;1.08;;;;;;;-6.04;79.66;97413.63;4967992;28;20046;-71
2024/01/19 07:58:46;;;;;;;0.85;0.85;;;;;;;-6.11;79.85;97414.91;4983398;28;20453;-73
2024/01/19 08:01:13;;;;;;;1.05;1.05;;;;;;;-6.20;80.22;97410.31;4970741;28;20109;-70
2024/01/19 08:03:41;;;;;;;0.98;0.98;;;;;;;-6.32;79.86;97417.09;4963475;28;20043;-70
2024/01/19 08:06:09;;;;;;;1.38;1.38;;;;;;;-6.35;79.28;97415.53;4981492;28;20054;-73
2024/01/19 08:08:37;;;;;;;1.50;1.50;;;;;;;-6.25;79.79;97421.00;4973896;28;20486;-73
2024/01/19 08:11:06;;;;;;;0.80;0.80;;;;;;;-6.10;80.00;97417.41;4963775;28;20101;-71
2024/01/19 08:13:34;;;;;;;1.25;1.25;;;;;;;-6.03;80.46;97438.66;4965776;28;20065;-70
2024/01/19 08:16:02;;;;;;;0.52;0.52;;;;;;;-5.90;79.92;97436.94;4978372;28;20402;-71
2024/01/19 08:18:33;;;;;;;1.08;1.08;;;;;;;-5.88;80.99;97429.88;4975083;28;20117;-71
2024/01/19 08:21:04;;;;;;;0.30;0.30;;;;;;;-5.81;81.40;97436.31;4971882;28;20356;-73
2024/01/19 08:23:33;;;;;;;1.90;1.90;;;;;;;-5.77;82.03;97434.38;4962285;28;20514;-71
2024/01/19 08:26:01;;;;;;;0.77;0.77;;;;;;;-5.64;81.89;97441.28;4974417;28;20433;-71
2024/01/19 08:28:30;;;;;;;0.40;0.40;;;;;;;-5.58;82.09;97446.06;4968025;28;20470;-71
2024/01/19 08:30:58;;;;;;;1.00;1.00;;;;;;;-5.48;82.23;97455.88;4967481;28;20042;-73
2024/01/19 08:33:25;;;;;;;1.10;1.10;;;;;;;-5.39;81.80;97455.28;4966578;28;20074;-73
2024/01/19 08:35:53;;;;;;;1.00;1.00;;;;;;;-5.38;82.16;97456.94;4983737;28;20490;-71
2024/01/19 08:38:20;;;;;;;0.30;0.30;;;;;;;-5.28;82.47;97466.66;4969889;28;20485;-75
2024/01/19 08:40:48;;;;;;;1.05;1.05;;;;;;;-5.16;82.42;97462.41;4970631;28;20553;-73
2024/01/19 08:43:16;;;;;;;2.63;2.53;;;;;;;-5.22;82.73;97466.25;4967328;28;20051;-74
2024/01/19 08:45:45;;;;;;;1.27;1.27;;;;;;;-5.13;82.95;97461.38;4986840;28;20109;-71
2024/01/19 08:48:13;;;;;;;1.23;1.23;;;;;;;-5.05;82.47;97465.13;4979955;28;20035;-74
2024/01/19 08:50:41;;;;;;;1.42;1.42;;;;;;;-5.07;82.18;97474.81;4964967;28;20057;-74
2024/01/19 08:53:09;;;;;;;0.60;0.60;;;;;;;-4.97;80.68;97472.41;4972243;28;20047;-73
2024/01/19 08:55:39;;;;;;;1.17;1.17;;;;;;;-4.99;80.63;97474.31;4964784;28;20494;-72
2024/01/19 08:58:06;;;;;;;1.30;1.30;;;;;;;-4.96;81.03;97489.69;4978228;28;20046;-72
2024/01/19 09:00:34;;;;;;;1.42;1.42;;;;;;;-4.96;81.34;97480.13;4977850;28;20053;-71
2024/01/19 09:03:03;;;;;;;0.95;0.95;;;;;;;-5.06;81.48;97489.47;4966448;28;20051;-72
2024/01/19 09:05:31;;;;;;;1.33;1.33;;;;;;;-5.05;81.67;97485.94;4980552;28;20038;-72
2024/01/19 09:07:59;;;;;;;0.40;0.40;;;;;;;-5.08;82.14;97491.34;4973024;28;20456;-72
2024/01/19 09:10:29;;;;;;;0.90;0.90;;;;;;;-5.06;82.55;97489.47;4983537;28;20522;-72
2024/01/19 09:12:56;;;;;;;0.93;0.93;;;;;;;-5.03;83.17;97491.06;4969025;28;20058;-72
2024/01/19 09:15:24;;;;;;;0.75;0.75;;;;;;;-4.91;83.37;97504.09;4978372;28;20047;-72
2024/01/19 09:17:51;;;;;;;1.13;1.13;;;;;;;-4.79;82.35;97514.63;4959096;28;20635;-72
2024/01/19 09:20:20;;;;;;;1.15;1.15;;;;;;;-4.67;82.52;97511.22;4977640;28;20047;-72
2024/01/19 09:22:48;;;;;;;1.23;1.23;;;;;;;-4.56;82.21;97509.53;4957050;28;20047;-72
2024/01/19 09:25:16;;;;;;;1.17;1.17;;;;;;;-4.51;82.63;97507.47;4959443;28;20050;-73
2024/01/19 09:27:44;;;;;;;1.33;1.33;;;;;;;-4.41;82.35;97509.44;4977174;28;20043;-72
2024/01/19 09:30:12;;;;;;;0.25;0.25;;;;;;;-4.19;82.11;97520.88;4965471;28;20472;-72
2024/01/19 09:32:40;;;;;;;1.05;1.05;;;;;;;-4.21;82.77;97514.94;4976689;28;20046;-73
2024/01/19 09:35:08;;;;;;;1.17;1.17;;;;;;;-4.13;82.53;97527.44;4977457;28;20105;-72
2024/01/19 09:37:38;;;;;;;1.05;1.05;;;;;;;-4.12;82.89;97535.16;4951224;28;20502;-72
2024/01/19 09:40:07;;;;;;;1.08;1.08;;;;;;;-4.06;82.85;97544.34;4970327;28;20057;-72
2024/01/19 09:42:36;;;;;;;0.30;0.30;;;;;;;-3.94;82.78;97540.84;4967672;28;21867;-72
2024/01/19 09:45:07;;;;;;;1.15;1.15;;;;;;;-3.91;82.70;97553.69;4966666;28;20050;-72
2024/01/19 09:47:42;;;;;;;0.45;0.45;;;;;;;-3.82;82.38;97552.19;4974394;28;20477;-72
2024/01/19 09:50:11;;;;;;;1.02;1.02;;;;;;;-3.82;82.20;97554.81;4968009;28;20122;-72
2024/01/19 09:52:49;;;;;;;1.00;1.00;;;;;;;-3.77;81.77;97557.94;4960443;28;20180;-71
2024/01/19 09:55:18;;;;;;;1.25;1.25;;;;;;;-3.72;81.62;97553.22;4965426;28;20066;-74
2024/01/19 09:57:47;;;;;;;1.15;1.15;;;;;;;-3.59;81.62;97563.63;4987839;28;20512;-72
2024/01/19 10:00:16;;;;;;;1.45;1.45;;;;;;;-3.56;81.92;97566.88;4971186;28;20498;-73
2024/01/19 10:02:45;;;;;;;1.05;1.05;;;;;;;-3.41;81.04;97567.53;4981486;28;20134;-72
2024/01/19 10:05:14;;;;;;;1.15;1.15;;;;;;;-3.27;81.03;97569.19;4978700;28;20051;-72
2024/01/19 10:07:44;;;;;;;1.30;1.30;;;;;;;-3.09;80.73;97579.13;4979619;28;20125;-71
2024/01/19 10:10:12;;;;;;;1.05;1.05;;;;;;;-2.91;80.79;97581.38;4974323;28;20538;-75
2024/01/19 10:12:40;;;;;;;1.20;1.20;;;;;;;-2.88;80.45;97587.16;4971211;28;20101;-71
2024/01/19 10:15:10;;;;;;;1.10;1.10;;;;;;;-2.88;80.14;97587.16;4969155;28;20042;-71
2024/01/19 10:17:39;;;;;;;0.95;0.95;;;;;;;-2.91;80.23;97582.19;4961102;28;20046;-71
2024/01/19 10:20:09;;;;;;;1.75;1.75;;;;;;;-2.90;80.25;97580.38;4968240;28;20046;-71
2024/01/19 10:22:36;;;;;;;0.20;0.20;;;;;;;-2.83;80.18;97579.84;4965605;28;20126;-71
2024/01/19 10:25:08;;;;;;;1.08;1.08;;;;;;;-2.78;80.18;97587.31;4974711;28;20042;-74
2024/01/19 10:27:38;;;;;;;0.30;0.30;;;;;;;-2.73;79.43;97591.28;4968170;28;20478;-72
2024/01/19 10:30:11;;;;;;;0.40;0.40;;;;;;;-2.59;79.95;97585.03;4933518;28;987349;-71
2024/01/19 10:32:39;;;;;;;0.32;0.32;;;;;;;-2.52;79.67;97588.88;4956898;28;20414;-71
2024/01/19 10:35:09;;;;;;;0.82;0.82;;;;;;;-2.37;79.47;97597.31;4974889;28;20058;-73
2024/01/19 10:37:37;;;;;;;1.10;1.10;;;;;;;-2.17;79.11;97601.06;4973758;28;20562;-72
2024/01/19 10:40:17;;;;;;;1.38;1.38;;;;;;;-2.18;79.22;97602.03;4968339;28;20049;-71
2024/01/19 10:42:46;;;;;;;1.17;1.17;;;;;;;-2.20;78.31;97612.59;4967138;28;20049;-71
2024/01/19 10:45:16;;;;;;;0.98;0.98;;;;;;;-2.32;79.19;97610.91;4961725;28;20054;-71
2024/01/19 10:47:44;;;;;;;1.00;1.00;;;;;;;-2.38;79.35;97622.63;4970622;28;20057;-72
2024/01/19 10:50:14;;;;;;;1.25;1.25;;;;;;;-2.32;78.60;97616.13;4970913;28;20047;-73
2024/01/19 10:52:43;;;;;;;1.13;1.13;;;;;;;-2.22;79.45;97617.94;4979294;28;20104;-71
2024/01/19 10:55:18;;;;;;;1.05;1.05;;;;;;;-2.04;78.96;97613.09;4974195;28;20061;-71
2024/01/19 10:57:47;;;;;;;1.10;1.10;;;;;;;-1.99;78.27;97618.81;4969063;28;20034;-72
2024/01/19 11:00:19;;;;;;;1.25;1.25;;;;;;;-1.90;77.96;97609.44;4967132;28;20470;-72
2024/01/19 11:02:48;;;;;;;0.35;0.35;;;;;;;-1.91;78.22;97619.06;4964122;28;20471;-71
2024/01/19 11:05:18;;;;;;;0.98;0.98;;;;;;;-1.82;77.86;97603.63;4964118;28;20053;-72
2024/01/19 11:07:45;;;;;;;1.27;1.27;;;;;;;-1.81;77.55;97611.34;4974113;28;20049;-71
2024/01/19 11:10:13;;;;;;;1.25;1.25;;;;;;;-1.72;77.48;97605.41;4968491;28;20118;-72
2024/01/19 11:12:47;;;;;;;1.23;1.23;;;;;;;-1.59;77.32;97607.91;4964555;28;20060;-71
2024/01/19 11:15:22;;;;;;;1.42;1.42;;;;;;;-1.60;76.99;97609.69;4977649;28;20051;-71
2024/01/19 11:17:50;;;;;;;1.23;1.23;;;;;;;-1.62;77.38;97608.97;4976288;28;20042;-72
2024/01/19 11:20:20;;;;;;;1.15;1.15;;;;;;;-1.63;77.32;97625.63;4963223;28;20046;-71
2024/01/19 11:22:47;;;;;;;0.88;0.88;;;;;;;-1.51;76.98;97632.53;4969062;28;20059;-71
2024/01/19 11:25:19;;;;;;;0.30;0.30;;;;;;;-1.49;77.41;97633.25;4967273;28;20513;-72
2024/01/19 11:27:52;;;;;;;0.95;0.95;;;;;;;-1.48;77.25;97634.09;4971997;28;20053;-72
2024/01/19 11:30:26;;;;;;;1.08;1.08;;;;;;;-1.48;77.19;97634.91;4991305;23;20057;-73
2024/01/19 11:32:53;;;;;;;0.30;0.30;;;;;;;-1.61;77.23;97623.72;4973359;28;20043;-73
2024/01/19 11:35:39;;;;;;;1.13;1.13;;;;;;;-1.67;77.76;97631.22;4975794;28;20074;-72
2024/01/19 11:38:07;;;;;;;0.30;0.30;;;;;;;-1.75;77.48;97630.97;4969901;28;20048;-72
2024/01/19 11:40:47;;;;;;;1.08;1.08;;;;;;;-1.66;77.70;97627.66;4958696;28;20051;-72